OIAG  Aghajari  Airport

Aghajari,, Iran

Add Bookmark
ICAO OIAG
Type Airport
Status Operational
Latitude
30° 44' 39" N
30.744400
Longitude
49° 40' 37" E
49.677200
Local (GMT +3.5 ) UTC
Dec 7, 2016 05:50 pm Dec 7, 2016 14:20
Sunrise-Sunset Local UTC
Begin Civil Twilight 06:28 am 02:58
Sunrise 06:54 am 03:24
Sunset 05:11 pm 13:41
End Civil Twilight 05:37 pm 14:07
VFR
VFR
MVFR
MVFR
IFR
IFR
LIFR
LIFR
Unknown
No Data

Current Weather

METAR Observed VFR
OIAG 071400Z 31004KT CAVOK 16/12 Q1020 Wed, Dec 7, 2016 @ 14:00 UTC
(20 Minutes ago)
Visual Flight Rules
Wind Visibility Conditions
310° at 4 knots (7 kph) 10 km or more
  • No significant weather
Temperatures Readings Precipitation
Current Temp
16°C
61°F
Dewpoint
12°C
54°F
Humidity 77%
Altimeter 30.12" Hg
Sea Level Pressure 1,020 mb
Field Elevation
29 m
95 ft
None Recorded

Additional weather within a 92.6km radius of OIAG

Map ICAO Location
OIAM 54.4km W/SW (248°)
VFR
VFR
MVFR
MVFR
IFR
IFR
LIFR
LIFR
Unknown
No Data
-
-

CheckWX.com is intended as a tool to help pilots better visualize weather data. It is not intended as a substitute for an official weather briefing obtained from a Flight Service Station. CheckWX.com does not meet the FAA requirements for an official pre-flight weather briefing. Therefore, it's important that pilots still call and obtain an official FSS pre-flight weather briefing.

© 2007-2016 CheckWX.com
14:20:06 UTC